createdAt,value
2023-03-15T00:00:32.372Z,7.84
2023-03-15T00:03:00.079Z,8.09
2023-03-15T00:05:28.268Z,7.98
2023-03-15T00:07:55.924Z,7.92
2023-03-15T00:10:23.608Z,7.55
2023-03-15T00:12:52.702Z,7.86
2023-03-15T00:15:20.607Z,7.46
2023-03-15T00:17:48.569Z,7.21
2023-03-15T00:20:16.455Z,7.25
2023-03-15T00:22:44.140Z,6.44
2023-03-15T00:25:11.937Z,6.78
2023-03-15T00:27:40.067Z,6.96
2023-03-15T00:30:10.720Z,7.23
2023-03-15T00:32:38.427Z,7.02
2023-03-15T00:35:06.904Z,6.87
2023-03-15T00:37:55.879Z,7.00
2023-03-15T00:40:24.054Z,6.71
2023-03-15T00:42:52.274Z,5.91
2023-03-15T00:45:22.641Z,5.99
2023-03-15T00:47:50.756Z,5.47
2023-03-15T00:50:18.868Z,6.13
2023-03-15T00:52:46.815Z,6.27
2023-03-15T00:55:16.119Z,6.04
2023-03-15T00:57:45.337Z,6.63
2023-03-15T01:00:16.445Z,5.43
2023-03-15T01:02:45.638Z,6.35
2023-03-15T01:05:14.195Z,6.16
2023-03-15T01:07:41.958Z,5.53
2023-03-15T01:10:10.380Z,6.26
2023-03-15T01:12:38.055Z,6.17
2023-03-15T01:15:08.231Z,6.07
2023-03-15T01:17:36.054Z,6.30
2023-03-15T01:20:06.605Z,6.12
2023-03-15T01:22:34.381Z,6.14
2023-03-15T01:25:02.343Z,6.25
2023-03-15T01:27:30.069Z,6.32
2023-03-15T01:29:57.863Z,5.95
2023-03-15T01:32:25.591Z,6.64
2023-03-15T01:34:53.271Z,6.85
2023-03-15T01:37:24.715Z,6.43
2023-03-15T01:39:52.719Z,6.70
2023-03-15T01:42:21.026Z,6.52
2023-03-15T01:44:55.093Z,6.07
2023-03-15T01:47:26.071Z,6.63
2023-03-15T01:49:57.599Z,6.77
2023-03-15T01:52:30.366Z,6.40
2023-03-15T01:55:00.109Z,6.30
2023-03-15T01:57:32.638Z,6.24
2023-03-15T02:00:08.216Z,6.32
2023-03-15T02:02:35.986Z,7.13
2023-03-15T02:05:06.989Z,6.64
2023-03-15T02:07:36.464Z,6.37
2023-03-15T02:10:06.725Z,6.05
2023-03-15T02:12:36.726Z,6.89
2023-03-15T02:15:07.669Z,6.34
2023-03-15T02:17:37.705Z,6.69
2023-03-15T02:20:15.599Z,6.21
2023-03-15T02:22:48.871Z,6.75
2023-03-15T02:25:21.350Z,6.96
2023-03-15T02:27:51.746Z,6.57
2023-03-15T02:30:19.819Z,6.29
2023-03-15T02:32:47.727Z,6.62
2023-03-15T02:35:24.403Z,6.64
2023-03-15T02:37:52.168Z,6.77
2023-03-15T02:40:22.407Z,6.74
2023-03-15T02:42:54.043Z,7.06
2023-03-15T02:45:22.160Z,6.48
2023-03-15T02:47:50.249Z,6.52
2023-03-15T02:50:18.137Z,6.65
2023-03-15T02:52:45.866Z,6.27
2023-03-15T02:55:13.600Z,6.58
2023-03-15T02:57:41.287Z,6.80
2023-03-15T03:00:14.524Z,6.78
2023-03-15T03:02:44.078Z,6.42
2023-03-15T03:05:12.116Z,7.18
2023-03-15T03:07:40.026Z,6.67
2023-03-15T03:10:08.440Z,6.72
2023-03-15T03:12:36.213Z,6.27
2023-03-15T03:15:04.847Z,6.02
2023-03-15T03:17:37.416Z,6.21
2023-03-15T03:20:08.027Z,6.60
2023-03-15T03:22:35.725Z,6.96
2023-03-15T03:25:03.690Z,6.20
2023-03-15T03:27:31.572Z,6.76
2023-03-15T03:30:00.252Z,7.01
2023-03-15T03:32:28.009Z,7.41
2023-03-15T03:34:57.112Z,6.94
2023-03-15T03:37:24.986Z,6.92
2023-03-15T03:39:53.045Z,7.35
2023-03-15T03:42:20.754Z,6.31
2023-03-15T03:44:50.311Z,7.20
2023-03-15T03:47:18.050Z,6.99
2023-03-15T03:49:45.786Z,6.88
2023-03-15T03:52:14.991Z,6.72
2023-03-15T03:54:42.864Z,7.70
2023-03-15T03:57:11.325Z,6.96
2023-03-15T03:59:39.164Z,6.97
2023-03-15T04:02:06.931Z,6.66
2023-03-15T04:04:34.848Z,6.96
2023-03-15T04:07:02.608Z,7.22
2023-03-15T04:09:31.941Z,7.09
2023-03-15T04:12:01.694Z,6.65
2023-03-15T04:14:29.669Z,7.09
2023-03-15T04:16:57.401Z,7.46
2023-03-15T04:19:25.206Z,6.40
2023-03-15T04:21:53.005Z,6.72
2023-03-15T04:24:20.816Z,6.63
2023-03-15T04:26:50.001Z,6.86
2023-03-15T04:29:17.734Z,7.16
2023-03-15T04:31:54.541Z,6.68
2023-03-15T04:34:22.197Z,6.42
2023-03-15T04:36:49.880Z,7.05
2023-03-15T04:39:17.617Z,6.95
2023-03-15T04:41:45.383Z,7.01
2023-03-15T04:44:16.250Z,7.70
2023-03-15T04:46:44.116Z,7.27
2023-03-15T04:49:11.961Z,7.42
2023-03-15T04:51:39.723Z,7.47
2023-03-15T04:54:07.615Z,7.49
2023-03-15T04:56:36.660Z,6.88
2023-03-15T04:59:04.586Z,7.24
2023-03-15T05:01:33.738Z,6.49
2023-03-15T05:04:01.445Z,6.64
2023-03-15T05:06:29.453Z,7.29
2023-03-15T05:08:57.351Z,6.93
2023-03-15T05:11:25.121Z,7.16
2023-03-15T05:13:53.482Z,6.34
2023-03-15T05:16:21.302Z,6.95
2023-03-15T05:18:50.409Z,6.43
2023-03-15T05:21:18.217Z,6.91
2023-03-15T05:23:45.944Z,6.88
2023-03-15T05:26:14.437Z,7.01
2023-03-15T05:28:45.390Z,7.13
2023-03-15T05:31:13.178Z,6.53
2023-03-15T05:33:46.800Z,6.93
2023-03-15T05:36:16.202Z,6.90
2023-03-15T05:38:45.615Z,6.37
2023-03-15T05:41:18.218Z,6.72
2023-03-15T05:43:46.319Z,6.56
2023-03-15T05:46:14.073Z,6.36
2023-03-15T05:48:41.883Z,7.17
2023-03-15T05:51:09.683Z,6.54
2023-03-15T05:53:38.780Z,6.66
2023-03-15T05:56:06.882Z,6.80
2023-03-15T05:58:34.681Z,6.96
2023-03-15T06:01:04.073Z,6.56
2023-03-15T06:03:32.716Z,6.41
2023-03-15T06:06:01.095Z,6.45
2023-03-15T06:08:28.854Z,6.16
2023-03-15T06:10:58.081Z,7.28
2023-03-15T06:13:25.922Z,6.99
2023-03-15T06:15:53.614Z,6.72
2023-03-15T06:18:21.377Z,6.52
2023-03-15T06:20:49.135Z,6.20
2023-03-15T06:23:16.913Z,6.42
2023-03-15T06:25:45.351Z,6.62
2023-03-15T06:28:14.527Z,6.31
2023-03-15T06:30:42.326Z,6.75
2023-03-15T06:33:10.121Z,6.67
2023-03-15T06:35:38.107Z,6.76
2023-03-15T06:38:06.110Z,6.41
2023-03-15T06:40:33.830Z,7.25
2023-03-15T06:43:06.012Z,6.67
2023-03-15T06:45:35.900Z,6.25
2023-03-15T06:48:03.657Z,6.47
2023-03-15T06:50:40.637Z,6.51
2023-03-15T06:53:14.227Z,6.19
2023-03-15T06:55:56.919Z,6.51
2023-03-15T06:58:24.668Z,7.08
2023-03-15T07:00:53.897Z,6.51
2023-03-15T07:03:22.413Z,7.09
2023-03-15T07:05:52.619Z,6.77
2023-03-15T07:08:20.527Z,7.13
2023-03-15T07:10:48.474Z,6.82
2023-03-15T07:13:18.649Z,6.36
2023-03-15T07:15:47.814Z,7.30
2023-03-15T07:18:16.953Z,6.81
2023-03-15T07:20:44.659Z,7.40
2023-03-15T07:23:12.339Z,7.01
2023-03-15T07:25:53.982Z,6.82
2023-03-15T07:28:23.078Z,6.07
2023-03-15T07:30:55.366Z,7.55
2023-03-15T07:33:25.335Z,6.80
2023-03-15T07:35:54.658Z,6.61
2023-03-15T07:38:23.063Z,6.98
2023-03-15T07:40:50.762Z,6.98
2023-03-15T07:43:18.640Z,7.48
2023-03-15T07:45:46.522Z,7.08
2023-03-15T07:48:14.345Z,7.50
2023-03-15T07:50:43.626Z,7.60
2023-03-15T07:53:11.431Z,7.36
2023-03-15T07:55:39.147Z,7.64
2023-03-15T07:58:07.021Z,8.41
2023-03-15T08:00:34.733Z,7.91
2023-03-15T08:03:02.455Z,7.00
2023-03-15T08:05:30.444Z,6.86
2023-03-15T08:07:59.551Z,7.28
2023-03-15T08:10:27.291Z,7.62
2023-03-15T08:12:54.995Z,7.30
2023-03-15T08:15:23.030Z,7.92
2023-03-15T08:17:51.099Z,8.23
2023-03-15T08:20:56.942Z,7.89
2023-03-15T08:23:32.051Z,7.21
2023-03-15T08:25:59.777Z,7.93
2023-03-15T08:28:27.428Z,7.95
2023-03-15T08:30:55.128Z,8.02
2023-03-15T08:33:23.362Z,7.82
2023-03-15T08:35:53.906Z,7.87
2023-03-15T08:38:21.627Z,8.03
2023-03-15T08:40:50.909Z,7.89
2023-03-15T08:43:18.584Z,8.24
2023-03-15T08:46:00.215Z,7.85
2023-03-15T08:48:28.977Z,8.95
2023-03-15T08:50:58.269Z,7.93
2023-03-15T08:53:25.964Z,8.73
2023-03-15T08:55:55.058Z,7.97
2023-03-15T08:58:22.724Z,8.88
2023-03-15T09:00:51.515Z,8.41
2023-03-15T09:03:19.276Z,8.00
2023-03-15T09:05:47.288Z,8.32
2023-03-15T09:08:16.969Z,9.38
2023-03-15T09:10:44.993Z,8.12
2023-03-15T09:13:14.048Z,9.07
2023-03-15T09:15:41.713Z,9.27
2023-03-15T09:18:09.412Z,9.95
2023-03-15T09:20:39.658Z,8.78
2023-03-15T09:23:07.793Z,9.79
2023-03-15T09:25:37.049Z,8.59
2023-03-15T09:28:04.963Z,8.77
2023-03-15T09:30:34.169Z,9.40
2023-03-15T09:33:01.984Z,9.26
2023-03-15T09:35:29.745Z,9.22
2023-03-15T09:37:57.659Z,8.55
2023-03-15T09:40:27.793Z,9.98
2023-03-15T09:43:01.257Z,9.70
2023-03-15T09:45:41.593Z,9.11
2023-03-15T09:48:11.965Z,10.16
2023-03-15T09:50:43.366Z,9.17
2023-03-15T09:53:14.302Z,9.68
2023-03-15T09:55:43.470Z,10.71
2023-03-15T09:58:13.590Z,8.93
2023-03-15T10:00:45.825Z,9.53
2023-03-15T10:03:19.771Z,10.05
2023-03-15T10:05:50.042Z,10.20
2023-03-15T10:08:19.310Z,9.85
2023-03-15T10:10:52.298Z,10.21
2023-03-15T10:13:29.120Z,10.47
2023-03-15T10:16:05.717Z,10.48
2023-03-15T10:18:48.435Z,10.88
2023-03-15T10:21:27.739Z,9.86
2023-03-15T10:23:55.702Z,10.56
2023-03-15T10:26:26.126Z,9.73
2023-03-15T10:28:55.061Z,10.27
2023-03-15T10:31:36.877Z,10.30
2023-03-15T10:34:12.131Z,9.93
2023-03-15T10:36:45.312Z,10.51
2023-03-15T10:39:14.120Z,10.54
2023-03-15T10:41:45.203Z,11.40
2023-03-15T10:44:16.337Z,10.48
2023-03-15T10:47:02.957Z,11.13
2023-03-15T10:49:36.585Z,10.04
2023-03-15T10:52:05.684Z,10.53
2023-03-15T10:54:34.872Z,13.11
2023-03-15T10:57:04.589Z,10.44
2023-03-15T10:59:35.453Z,12.54
2023-03-15T11:02:22.486Z,11.71
2023-03-15T11:04:52.320Z,11.84
2023-03-15T11:07:20.054Z,11.25
2023-03-15T11:13:21.882Z,11.70
2023-03-15T11:15:55.794Z,11.00
2023-03-15T11:18:30.994Z,11.79
2023-03-15T11:20:59.280Z,12.31
2023-03-15T11:23:28.923Z,11.76
2023-03-15T11:25:57.222Z,11.50
2023-03-15T11:28:28.224Z,12.19
2023-03-15T11:30:56.936Z,11.41
2023-03-15T11:33:39.634Z,11.55
2023-03-15T11:36:12.544Z,11.88
2023-03-15T11:38:43.980Z,11.31
2023-03-15T11:41:19.732Z,11.84
2023-03-15T11:43:53.285Z,12.46
2023-03-15T11:46:27.046Z,12.47
2023-03-15T11:49:01.141Z,12.43
2023-03-15T11:51:29.715Z,12.43
2023-03-15T11:54:06.710Z,12.38
2023-03-15T11:56:48.395Z,13.04
2023-03-15T11:59:18.350Z,12.62
2023-03-15T12:02:37.100Z,12.10
2023-03-15T12:05:17.654Z,11.90
2023-03-15T12:08:00.656Z,12.24
2023-03-15T12:10:34.983Z,12.38
2023-03-15T12:13:16.124Z,13.23
2023-03-15T12:15:47.173Z,12.26
2023-03-15T12:18:17.703Z,12.44
2023-03-15T12:20:51.834Z,12.80
2023-03-15T12:23:29.795Z,13.38
2023-03-15T12:25:58.807Z,13.09
2023-03-15T12:28:29.779Z,11.87
2023-03-15T12:31:08.264Z,13.26
2023-03-15T12:33:46.609Z,12.47
2023-03-15T12:36:21.340Z,13.47
2023-03-15T12:39:01.166Z,12.47
2023-03-15T12:41:37.642Z,12.94
2023-03-15T12:44:25.474Z,12.46
2023-03-15T12:46:58.483Z,12.37
2023-03-15T12:49:32.114Z,12.49
2023-03-15T12:52:03.114Z,12.04
2023-03-15T12:54:35.969Z,12.03
2023-03-15T12:57:05.081Z,12.13
2023-03-15T12:59:36.808Z,13.64
2023-03-15T13:02:42.297Z,13.70
2023-03-15T13:05:20.704Z,13.91
2023-03-15T13:08:06.615Z,14.54
2023-03-15T13:10:39.109Z,13.91
2023-03-15T13:13:14.665Z,13.99
2023-03-15T13:15:45.758Z,14.26
2023-03-15T13:18:18.325Z,14.21
2023-03-15T13:20:54.883Z,13.04
2023-03-15T13:23:28.629Z,13.08
2023-03-15T13:26:06.482Z,14.45
2023-03-15T13:28:37.536Z,14.71
2023-03-15T13:31:13.654Z,13.72
2023-03-15T13:33:41.658Z,14.28
2023-03-15T13:36:15.027Z,14.55
2023-03-15T13:38:45.484Z,15.99
2023-03-15T13:41:22.708Z,16.36
2023-03-15T13:43:51.892Z,16.71
2023-03-15T13:49:31.723Z,14.38
2023-03-15T13:51:59.625Z,14.23
2023-03-15T13:54:31.257Z,14.03
2023-03-15T13:57:01.765Z,15.28
2023-03-15T14:05:13.522Z,17.76
2023-03-15T14:07:45.104Z,17.00
2023-03-15T14:10:27.666Z,17.92
2023-03-15T14:12:56.467Z,17.26
2023-03-15T14:15:26.613Z,17.69
2023-03-15T14:18:00.148Z,16.54
2023-03-15T14:20:30.809Z,15.04
2023-03-15T14:23:01.743Z,18.57
2023-03-15T14:25:35.824Z,18.55
2023-03-15T14:28:04.711Z,19.03
2023-03-15T14:30:36.570Z,17.18
2023-03-15T14:33:07.495Z,17.82
2023-03-15T14:35:43.456Z,19.13
2023-03-15T14:38:18.922Z,17.49
2023-03-15T14:40:48.333Z,16.48
2023-03-15T14:43:16.374Z,18.75
2023-03-15T14:45:45.993Z,19.44
2023-03-15T14:48:16.219Z,20.23
2023-03-15T14:50:45.884Z,19.97
2023-03-15T14:53:16.203Z,21.33
2023-03-15T14:55:43.994Z,20.11
2023-03-15T14:58:14.821Z,18.25
2023-03-15T15:00:42.993Z,16.52
2023-03-15T15:03:16.323Z,17.87
2023-03-15T15:05:44.233Z,18.55
2023-03-15T15:08:14.057Z,16.74
2023-03-15T15:10:42.734Z,16.74
2023-03-15T15:13:58.111Z,18.03
2023-03-15T15:16:26.401Z,17.15
2023-03-15T15:18:54.141Z,21.57
2023-03-15T15:21:24.957Z,19.22
2023-03-15T15:24:00.727Z,20.02
2023-03-15T15:26:30.171Z,19.17
2023-03-15T15:29:00.690Z,21.32
2023-03-15T15:31:30.100Z,17.76
2023-03-15T15:33:58.271Z,19.57
2023-03-15T15:36:27.449Z,16.19
2023-03-15T15:38:55.150Z,16.82
2023-03-15T15:41:24.755Z,17.41
2023-03-15T15:44:00.793Z,17.04
2023-03-15T15:46:28.740Z,16.72
2023-03-15T15:48:56.426Z,17.82
2023-03-15T15:51:29.178Z,17.23
2023-03-15T15:53:59.481Z,18.78
2023-03-15T15:56:31.990Z,19.74
2023-03-15T15:59:01.265Z,17.95
2023-03-15T16:01:29.149Z,18.38
2023-03-15T16:03:57.327Z,17.24
2023-03-15T16:06:25.032Z,17.57
2023-03-15T16:08:53.420Z,17.25
2023-03-15T16:11:21.944Z,16.33
2023-03-15T16:13:51.886Z,15.70
2023-03-15T16:16:21.570Z,14.65
2023-03-15T16:18:49.631Z,14.33
2023-03-15T16:21:18.795Z,13.13
2023-03-15T16:23:47.603Z,13.91
2023-03-15T16:26:17.444Z,13.38
2023-03-15T16:28:46.451Z,13.65
2023-03-15T16:31:14.169Z,14.03
2023-03-15T16:33:43.455Z,14.39
2023-03-15T16:36:18.084Z,13.99
2023-03-15T16:38:45.815Z,13.41
2023-03-15T16:41:14.380Z,13.49
2023-03-15T16:43:42.087Z,12.52
2023-03-15T16:46:13.816Z,12.91
2023-03-15T16:48:42.929Z,12.92
2023-03-15T16:51:11.538Z,12.87
2023-03-15T16:53:39.269Z,12.28
2023-03-15T16:56:07.273Z,12.19
2023-03-15T16:58:34.976Z,12.08
2023-03-15T17:01:02.878Z,12.16
2023-03-15T17:03:32.863Z,12.93
2023-03-15T17:06:01.999Z,12.13
2023-03-15T17:08:29.675Z,11.78
2023-03-15T17:10:57.405Z,12.50
2023-03-15T17:13:27.441Z,12.36
2023-03-15T17:15:55.245Z,12.51
2023-03-15T17:18:24.163Z,12.42
2023-03-15T17:20:51.930Z,12.59
2023-03-15T17:23:21.406Z,12.50
2023-03-15T17:25:49.865Z,12.12
2023-03-15T17:28:17.821Z,11.52
2023-03-15T17:30:45.728Z,11.35
2023-03-15T17:33:13.515Z,11.50
2023-03-15T17:35:43.721Z,10.42
2023-03-15T17:38:16.905Z,10.67
2023-03-15T17:40:46.404Z,10.27
2023-03-15T17:43:17.026Z,10.25
2023-03-15T17:45:45.115Z,10.04
2023-03-15T17:48:13.507Z,9.86
2023-03-15T17:50:43.737Z,9.47
2023-03-15T17:53:16.777Z,9.46
2023-03-15T17:55:46.610Z,9.29
2023-03-15T17:58:19.203Z,9.29
2023-03-15T18:00:48.541Z,9.18
2023-03-15T18:03:17.457Z,9.49
2023-03-15T18:05:46.112Z,10.05
2023-03-15T18:08:14.879Z,9.14
2023-03-15T18:10:43.545Z,8.85
2023-03-15T18:13:15.040Z,9.27
2023-03-15T18:15:42.730Z,9.24
2023-03-15T18:18:10.463Z,9.20
2023-03-15T18:20:38.577Z,8.86
2023-03-15T18:23:06.281Z,9.19
2023-03-15T18:25:35.926Z,8.88
2023-03-15T18:28:03.780Z,9.34
2023-03-15T18:30:33.708Z,9.53
2023-03-15T18:33:01.807Z,9.46
2023-03-15T18:35:31.662Z,9.35
2023-03-15T18:37:59.678Z,9.51
2023-03-15T18:40:29.210Z,9.50
2023-03-15T18:42:57.945Z,9.49
2023-03-15T18:45:27.926Z,9.40
2023-03-15T18:47:57.067Z,9.50
2023-03-15T18:50:24.752Z,9.21
2023-03-15T18:52:52.626Z,9.34
2023-03-15T18:55:22.748Z,9.38
2023-03-15T18:57:51.060Z,9.37
2023-03-15T19:00:26.117Z,9.16
2023-03-15T19:02:55.018Z,9.14
2023-03-15T19:05:25.013Z,9.12
2023-03-15T19:07:53.137Z,9.14
2023-03-15T19:10:22.147Z,9.08
2023-03-15T19:12:52.270Z,8.85
2023-03-15T19:15:21.107Z,8.85
2023-03-15T19:17:51.083Z,8.88
2023-03-15T19:20:22.082Z,8.53
2023-03-15T19:22:51.973Z,8.80
2023-03-15T19:25:22.010Z,8.81
2023-03-15T19:27:49.725Z,8.80
2023-03-15T19:30:22.211Z,8.86
2023-03-15T19:32:50.661Z,8.64
2023-03-15T19:35:19.607Z,8.48
2023-03-15T19:37:48.277Z,8.71
2023-03-15T19:40:19.899Z,8.51
2023-03-15T19:42:48.691Z,8.43
2023-03-15T19:45:17.441Z,8.13
2023-03-15T19:47:45.427Z,8.55
2023-03-15T19:50:14.229Z,8.41
2023-03-15T19:52:46.158Z,8.49
2023-03-15T19:55:14.558Z,8.25
2023-03-15T19:58:05.355Z,8.08
2023-03-15T20:00:33.099Z,8.24
2023-03-15T20:03:00.879Z,8.19
2023-03-15T20:05:28.611Z,8.21
2023-03-15T20:07:56.478Z,8.05
2023-03-15T20:10:24.561Z,8.17
2023-03-15T20:12:59.284Z,8.06
2023-03-15T20:15:29.334Z,8.07
2023-03-15T20:17:57.133Z,7.90
2023-03-15T20:20:24.937Z,8.07
2023-03-15T20:22:52.758Z,7.76
2023-03-15T20:25:21.441Z,8.01
2023-03-15T20:27:49.574Z,7.97
2023-03-15T20:30:19.901Z,8.01
2023-03-15T20:32:47.953Z,8.25
2023-03-15T20:35:16.050Z,8.16
2023-03-15T20:37:43.911Z,7.46
2023-03-15T20:40:13.389Z,7.12
2023-03-15T20:42:41.680Z,7.29
2023-03-15T20:45:10.793Z,7.36
2023-03-15T20:47:39.878Z,7.71
2023-03-15T20:50:08.917Z,7.73
2023-03-15T20:52:36.610Z,8.10
2023-03-15T20:55:05.912Z,7.77
2023-03-15T20:57:34.130Z,8.12
2023-03-15T21:00:01.809Z,7.92
2023-03-15T21:02:29.494Z,8.26
2023-03-15T21:04:58.719Z,8.07
2023-03-15T21:07:26.732Z,7.43
2023-03-15T21:09:54.403Z,7.87
2023-03-15T21:12:22.086Z,7.27
2023-03-15T21:14:49.753Z,7.50
2023-03-15T21:17:17.430Z,7.34
2023-03-15T21:20:01.891Z,7.89
2023-03-15T21:22:29.543Z,7.32
2023-03-15T21:24:57.303Z,7.52
2023-03-15T21:27:26.455Z,7.65
2023-03-15T21:29:54.370Z,7.72
2023-03-15T21:32:22.415Z,7.55
2023-03-15T21:34:50.309Z,7.73
2023-03-15T21:37:19.405Z,7.55
2023-03-15T21:39:47.167Z,7.60
2023-03-15T21:42:14.907Z,7.88
2023-03-15T21:44:42.890Z,7.77
2023-03-15T21:47:11.287Z,7.85
2023-03-15T21:49:38.978Z,7.98
2023-03-15T21:52:06.825Z,7.97
2023-03-15T21:54:35.936Z,8.03
2023-03-15T21:57:04.272Z,7.80
2023-03-15T21:59:32.068Z,7.83
2023-03-15T22:02:01.588Z,8.10
2023-03-15T22:04:29.405Z,7.89
2023-03-15T22:06:57.098Z,8.06
2023-03-15T22:09:24.794Z,7.65
2023-03-15T22:11:53.843Z,7.92
2023-03-15T22:14:21.843Z,8.13
2023-03-15T22:16:49.566Z,8.17
2023-03-15T22:19:17.630Z,8.32
2023-03-15T22:21:45.848Z,7.92
2023-03-15T22:24:13.561Z,7.58
2023-03-15T22:26:54.101Z,7.29
2023-03-15T22:29:21.793Z,7.70
2023-03-15T22:31:49.470Z,7.48
2023-03-15T22:34:17.147Z,7.64
2023-03-15T22:36:45.115Z,7.85
2023-03-15T22:39:14.365Z,7.66
2023-03-15T22:41:42.053Z,7.47
2023-03-15T22:44:11.156Z,7.48
2023-03-15T22:46:38.906Z,6.97
2023-03-15T22:49:06.618Z,7.50
2023-03-15T22:51:34.821Z,7.36
2023-03-15T22:54:02.519Z,7.78
2023-03-15T22:56:30.181Z,7.59
2023-03-15T22:58:57.897Z,6.93
2023-03-15T23:01:27.225Z,7.64
2023-03-15T23:03:54.989Z,7.54
2023-03-15T23:06:22.963Z,6.46
2023-03-15T23:08:50.957Z,6.82
2023-03-15T23:11:18.730Z,7.26
2023-03-15T23:13:48.543Z,6.82
2023-03-15T23:16:16.609Z,6.43
2023-03-15T23:18:45.876Z,6.98
2023-03-15T23:21:14.906Z,7.14
2023-03-15T23:23:43.838Z,6.57
2023-03-15T23:26:15.292Z,6.39
2023-03-15T23:28:43.145Z,6.68
2023-03-15T23:31:10.846Z,6.96
2023-03-15T23:33:38.689Z,7.49
2023-03-15T23:36:08.681Z,7.25
2023-03-15T23:38:36.392Z,7.25
2023-03-15T23:41:05.086Z,7.71
2023-03-15T23:43:35.348Z,7.75
2023-03-15T23:46:05.070Z,7.85
2023-03-15T23:48:37.088Z,7.27
2023-03-15T23:51:05.073Z,7.32
2023-03-15T23:53:34.690Z,7.61
2023-03-15T23:56:02.477Z,7.21
2023-03-15T23:58:30.269Z,7.65
